sensor_id;sensor_type;location;lat;lon;timestamp;P1;durP1;ratioP1;P2;durP2;ratioP2
3417;SDS011;68007;51.312;12.372;2023-04-28T00:00:56;16.00;;;5.90;;
3417;SDS011;68007;51.312;12.372;2023-04-28T00:03:23;8.00;;;5.00;;
3417;SDS011;68007;51.312;12.372;2023-04-28T00:05:51;13.50;;;5.50;;
3417;SDS011;68007;51.312;12.372;2023-04-28T00:08:19;12.33;;;4.90;;
3417;SDS011;68007;51.312;12.372;2023-04-28T00:10:49;7.70;;;5.00;;
3417;SDS011;68007;51.312;12.372;2023-04-28T00:13:17;9.43;;;4.80;;
3417;SDS011;68007;51.312;12.372;2023-04-28T00:15:44;9.77;;;5.30;;
3417;SDS011;68007;51.312;12.372;2023-04-28T00:18:12;13.53;;;5.43;;
3417;SDS011;68007;51.312;12.372;2023-04-28T00:20:39;11.30;;;5.20;;
3417;SDS011;68007;51.312;12.372;2023-04-28T00:23:07;9.00;;;4.53;;
3417;SDS011;68007;51.312;12.372;2023-04-28T00:25:34;8.63;;;5.40;;
3417;SDS011;68007;51.312;12.372;2023-04-28T00:28:03;6.10;;;4.53;;
3417;SDS011;68007;51.312;12.372;2023-04-28T00:30:31;11.00;;;6.40;;
3417;SDS011;68007;51.312;12.372;2023-04-28T00:32:58;10.23;;;5.03;;
3417;SDS011;68007;51.312;12.372;2023-04-28T00:35:26;8.20;;;4.80;;
3417;SDS011;68007;51.312;12.372;2023-04-28T00:37:53;10.80;;;4.97;;
3417;SDS011;68007;51.312;12.372;2023-04-28T00:40:21;11.37;;;5.10;;
3417;SDS011;68007;51.312;12.372;2023-04-28T00:42:49;8.30;;;4.80;;
3417;SDS011;68007;51.312;12.372;2023-04-28T00:45:17;13.07;;;5.40;;
3417;SDS011;68007;51.312;12.372;2023-04-28T00:47:45;12.47;;;5.07;;
3417;SDS011;68007;51.312;12.372;2023-04-28T00:50:13;12.60;;;5.70;;
3417;SDS011;68007;51.312;12.372;2023-04-28T00:52:42;8.90;;;5.37;;
3417;SDS011;68007;51.312;12.372;2023-04-28T00:55:09;10.13;;;5.20;;
3417;SDS011;68007;51.312;12.372;2023-04-28T00:57:40;9.97;;;5.23;;
3417;SDS011;68007;51.312;12.372;2023-04-28T01:00:08;7.87;;;4.90;;
3417;SDS011;68007;51.312;12.372;2023-04-28T01:02:38;14.17;;;5.10;;
3417;SDS011;68007;51.312;12.372;2023-04-28T01:05:06;11.13;;;5.43;;
3417;SDS011;68007;51.312;12.372;2023-04-28T01:07:34;10.03;;;5.50;;
3417;SDS011;68007;51.312;12.372;2023-04-28T01:10:02;10.00;;;5.50;;
3417;SDS011;68007;51.312;12.372;2023-04-28T01:12:30;9.63;;;4.60;;
3417;SDS011;68007;51.312;12.372;2023-04-28T01:14:58;13.00;;;5.60;;
3417;SDS011;68007;51.312;12.372;2023-04-28T01:17:26;9.17;;;5.60;;
3417;SDS011;68007;51.312;12.372;2023-04-28T01:19:55;14.33;;;6.23;;
3417;SDS011;68007;51.312;12.372;2023-04-28T01:22:22;9.40;;;5.57;;
3417;SDS011;68007;51.312;12.372;2023-04-28T01:24:51;7.50;;;5.47;;
3417;SDS011;68007;51.312;12.372;2023-04-28T01:27:19;11.20;;;6.07;;
3417;SDS011;68007;51.312;12.372;2023-04-28T01:29:48;11.20;;;5.47;;
3417;SDS011;68007;51.312;12.372;2023-04-28T01:32:15;13.70;;;5.43;;
3417;SDS011;68007;51.312;12.372;2023-04-28T01:34:43;10.67;;;6.87;;
3417;SDS011;68007;51.312;12.372;2023-04-28T01:37:10;9.83;;;6.40;;
3417;SDS011;68007;51.312;12.372;2023-04-28T01:39:38;11.63;;;6.10;;
3417;SDS011;68007;51.312;12.372;2023-04-28T01:42:07;9.20;;;6.33;;
3417;SDS011;68007;51.312;12.372;2023-04-28T01:44:34;10.97;;;6.70;;
3417;SDS011;68007;51.312;12.372;2023-04-28T01:47:02;10.13;;;6.10;;
3417;SDS011;68007;51.312;12.372;2023-04-28T01:49:29;10.40;;;6.90;;
3417;SDS011;68007;51.312;12.372;2023-04-28T01:51:57;10.40;;;6.80;;
3417;SDS011;68007;51.312;12.372;2023-04-28T01:54:24;15.43;;;6.30;;
3417;SDS011;68007;51.312;12.372;2023-04-28T01:56:52;9.63;;;6.47;;
3417;SDS011;68007;51.312;12.372;2023-04-28T01:59:21;11.07;;;6.80;;
3417;SDS011;68007;51.312;12.372;2023-04-28T02:01:49;11.27;;;5.80;;
3417;SDS011;68007;51.312;12.372;2023-04-28T02:04:16;12.30;;;7.10;;
3417;SDS011;68007;51.312;12.372;2023-04-28T02:06:44;13.50;;;6.47;;
3417;SDS011;68007;51.312;12.372;2023-04-28T02:09:11;11.43;;;6.30;;
3417;SDS011;68007;51.312;12.372;2023-04-28T02:11:39;10.00;;;6.63;;
3417;SDS011;68007;51.312;12.372;2023-04-28T02:14:06;13.57;;;7.30;;
3417;SDS011;68007;51.312;12.372;2023-04-28T02:16:35;10.70;;;7.60;;
3417;SDS011;68007;51.312;12.372;2023-04-28T02:19:02;14.67;;;8.50;;
3417;SDS011;68007;51.312;12.372;2023-04-28T02:21:30;12.13;;;7.10;;
3417;SDS011;68007;51.312;12.372;2023-04-28T02:23:58;11.77;;;7.57;;
3417;SDS011;68007;51.312;12.372;2023-04-28T02:26:25;11.60;;;6.70;;
3417;SDS011;68007;51.312;12.372;2023-04-28T02:28:53;10.00;;;7.60;;
3417;SDS011;68007;51.312;12.372;2023-04-28T02:31:20;11.10;;;6.70;;
3417;SDS011;68007;51.312;12.372;2023-04-28T02:33:49;12.20;;;6.60;;
3417;SDS011;68007;51.312;12.372;2023-04-28T02:36:17;10.60;;;7.27;;
3417;SDS011;68007;51.312;12.372;2023-04-28T02:38:45;11.37;;;7.20;;
3417;SDS011;68007;51.312;12.372;2023-04-28T02:41:12;15.00;;;7.47;;
3417;SDS011;68007;51.312;12.372;2023-04-28T02:43:40;13.10;;;7.20;;
3417;SDS011;68007;51.312;12.372;2023-04-28T02:46:08;9.10;;;7.40;;
3417;SDS011;68007;51.312;12.372;2023-04-28T02:48:36;11.90;;;7.20;;
3417;SDS011;68007;51.312;12.372;2023-04-28T02:51:04;8.80;;;6.93;;
3417;SDS011;68007;51.312;12.372;2023-04-28T02:53:32;10.67;;;6.80;;
3417;SDS011;68007;51.312;12.372;2023-04-28T02:55:59;12.43;;;7.90;;
3417;SDS011;68007;51.312;12.372;2023-04-28T02:58:29;13.10;;;7.57;;
3417;SDS011;68007;51.312;12.372;2023-04-28T03:00:56;12.23;;;8.20;;
3417;SDS011;68007;51.312;12.372;2023-04-28T03:03:24;17.60;;;7.70;;
3417;SDS011;68007;51.312;12.372;2023-04-28T03:05:51;11.23;;;7.00;;
3417;SDS011;68007;51.312;12.372;2023-04-28T03:08:22;11.27;;;6.87;;
3417;SDS011;68007;51.312;12.372;2023-04-28T03:10:50;17.53;;;8.87;;
3417;SDS011;68007;51.312;12.372;2023-04-28T03:13:17;11.83;;;7.50;;
3417;SDS011;68007;51.312;12.372;2023-04-28T03:15:45;12.27;;;7.87;;
3417;SDS011;68007;51.312;12.372;2023-04-28T03:18:12;13.57;;;7.67;;
3417;SDS011;68007;51.312;12.372;2023-04-28T03:20:42;14.13;;;7.70;;
3417;SDS011;68007;51.312;12.372;2023-04-28T03:23:09;10.20;;;6.80;;
3417;SDS011;68007;51.312;12.372;2023-04-28T03:25:38;17.27;;;8.97;;
3417;SDS011;68007;51.312;12.372;2023-04-28T03:28:05;11.37;;;7.43;;
3417;SDS011;68007;51.312;12.372;2023-04-28T03:30:35;14.30;;;8.43;;
3417;SDS011;68007;51.312;12.372;2023-04-28T03:33:02;14.17;;;7.30;;
3417;SDS011;68007;51.312;12.372;2023-04-28T03:35:30;12.90;;;8.20;;
3417;SDS011;68007;51.312;12.372;2023-04-28T03:37:57;12.73;;;8.20;;
3417;SDS011;68007;51.312;12.372;2023-04-28T03:40:25;14.60;;;8.13;;
3417;SDS011;68007;51.312;12.372;2023-04-28T03:42:54;12.90;;;7.60;;
3417;SDS011;68007;51.312;12.372;2023-04-28T03:45:22;13.73;;;8.20;;
3417;SDS011;68007;51.312;12.372;2023-04-28T03:47:49;15.33;;;9.30;;
3417;SDS011;68007;51.312;12.372;2023-04-28T03:50:17;18.50;;;8.10;;
3417;SDS011;68007;51.312;12.372;2023-04-28T03:52:44;15.33;;;8.10;;
3417;SDS011;68007;51.312;12.372;2023-04-28T03:55:12;12.03;;;7.73;;
3417;SDS011;68007;51.312;12.372;2023-04-28T03:57:39;12.13;;;7.90;;
3417;SDS011;68007;51.312;12.372;2023-04-28T04:00:09;12.40;;;8.50;;
3417;SDS011;68007;51.312;12.372;2023-04-28T04:02:37;11.30;;;7.90;;
3417;SDS011;68007;51.312;12.372;2023-04-28T04:05:05;14.60;;;7.60;;
3417;SDS011;68007;51.312;12.372;2023-04-28T04:07:33;11.20;;;7.77;;
3417;SDS011;68007;51.312;12.372;2023-04-28T04:10:00;13.40;;;7.90;;
3417;SDS011;68007;51.312;12.372;2023-04-28T04:12:28;15.40;;;8.17;;
3417;SDS011;68007;51.312;12.372;2023-04-28T04:14:55;11.40;;;7.70;;
3417;SDS011;68007;51.312;12.372;2023-04-28T04:17:24;11.03;;;8.00;;
3417;SDS011;68007;51.312;12.372;2023-04-28T04:19:52;14.10;;;8.40;;
3417;SDS011;68007;51.312;12.372;2023-04-28T04:22:19;11.53;;;8.10;;
3417;SDS011;68007;51.312;12.372;2023-04-28T04:24:47;18.80;;;8.87;;
3417;SDS011;68007;51.312;12.372;2023-04-28T04:27:14;14.13;;;8.33;;
3417;SDS011;68007;51.312;12.372;2023-04-28T04:29:42;11.40;;;7.90;;
3417;SDS011;68007;51.312;12.372;2023-04-28T04:32:09;12.73;;;8.00;;
3417;SDS011;68007;51.312;12.372;2023-04-28T04:34:39;13.20;;;8.00;;
3417;SDS011;68007;51.312;12.372;2023-04-28T04:37:06;12.07;;;7.67;;
3417;SDS011;68007;51.312;12.372;2023-04-28T04:39:34;12.63;;;8.50;;
3417;SDS011;68007;51.312;12.372;2023-04-28T04:42:02;13.77;;;8.77;;
3417;SDS011;68007;51.312;12.372;2023-04-28T04:44:30;13.57;;;8.50;;
3417;SDS011;68007;51.312;12.372;2023-04-28T04:46:57;13.80;;;7.73;;
3417;SDS011;68007;51.312;12.372;2023-04-28T04:49:25;15.70;;;8.73;;
3417;SDS011;68007;51.312;12.372;2023-04-28T04:51:53;15.23;;;7.20;;
3417;SDS011;68007;51.312;12.372;2023-04-28T04:54:21;18.33;;;7.73;;
3417;SDS011;68007;51.312;12.372;2023-04-28T04:56:49;17.60;;;9.03;;
3417;SDS011;68007;51.312;12.372;2023-04-28T04:59:17;12.20;;;8.83;;
3417;SDS011;68007;51.312;12.372;2023-04-28T05:01:44;19.77;;;8.40;;
3417;SDS011;68007;51.312;12.372;2023-04-28T05:04:12;15.87;;;7.53;;
3417;SDS011;68007;51.312;12.372;2023-04-28T05:06:39;16.20;;;8.03;;
3417;SDS011;68007;51.312;12.372;2023-04-28T05:09:08;14.70;;;7.40;;
3417;SDS011;68007;51.312;12.372;2023-04-28T05:11:36;15.97;;;8.90;;
3417;SDS011;68007;51.312;12.372;2023-04-28T05:14:03;16.43;;;9.20;;
3417;SDS011;68007;51.312;12.372;2023-04-28T05:16:31;17.83;;;9.60;;
3417;SDS011;68007;51.312;12.372;2023-04-28T05:18:58;13.80;;;8.47;;
3417;SDS011;68007;51.312;12.372;2023-04-28T05:21:26;13.83;;;7.70;;
3417;SDS011;68007;51.312;12.372;2023-04-28T05:23:54;12.33;;;8.03;;
3417;SDS011;68007;51.312;12.372;2023-04-28T05:26:23;14.50;;;7.70;;
3417;SDS011;68007;51.312;12.372;2023-04-28T05:28:51;14.47;;;7.90;;
3417;SDS011;68007;51.312;12.372;2023-04-28T05:31:18;12.90;;;8.87;;
3417;SDS011;68007;51.312;12.372;2023-04-28T05:33:46;16.63;;;7.80;;
3417;SDS011;68007;51.312;12.372;2023-04-28T05:36:13;16.70;;;8.40;;
3417;SDS011;68007;51.312;12.372;2023-04-28T05:38:41;15.50;;;7.47;;
3417;SDS011;68007;51.312;12.372;2023-04-28T05:41:09;15.70;;;7.67;;
3417;SDS011;68007;51.312;12.372;2023-04-28T05:43:38;16.13;;;8.37;;
3417;SDS011;68007;51.312;12.372;2023-04-28T05:46:06;14.27;;;7.80;;
3417;SDS011;68007;51.312;12.372;2023-04-28T05:48:33;15.40;;;8.20;;
3417;SDS011;68007;51.312;12.372;2023-04-28T05:51:01;17.70;;;8.10;;
3417;SDS011;68007;51.312;12.372;2023-04-28T05:53:28;12.00;;;7.90;;
3417;SDS011;68007;51.312;12.372;2023-04-28T05:55:56;19.80;;;7.77;;
3417;SDS011;68007;51.312;12.372;2023-04-28T05:58:23;14.53;;;8.70;;
3417;SDS011;68007;51.312;12.372;2023-04-28T06:00:52;12.40;;;7.93;;
3417;SDS011;68007;51.312;12.372;2023-04-28T06:03:20;12.10;;;7.83;;
3417;SDS011;68007;51.312;12.372;2023-04-28T06:05:47;14.50;;;7.90;;
3417;SDS011;68007;51.312;12.372;2023-04-28T06:08:15;14.20;;;7.00;;
3417;SDS011;68007;51.312;12.372;2023-04-28T06:10:43;12.07;;;7.33;;
3417;SDS011;68007;51.312;12.372;2023-04-28T06:13:10;13.93;;;9.07;;
3417;SDS011;68007;51.312;12.372;2023-04-28T06:15:38;15.40;;;8.50;;
3417;SDS011;68007;51.312;12.372;2023-04-28T06:18:07;10.40;;;7.50;;
3417;SDS011;68007;51.312;12.372;2023-04-28T06:20:34;12.40;;;8.00;;
3417;SDS011;68007;51.312;12.372;2023-04-28T06:23:02;9.03;;;6.97;;
3417;SDS011;68007;51.312;12.372;2023-04-28T06:25:29;15.53;;;8.20;;
3417;SDS011;68007;51.312;12.372;2023-04-28T06:27:57;11.90;;;6.97;;
3417;SDS011;68007;51.312;12.372;2023-04-28T06:30:24;11.50;;;6.70;;
3417;SDS011;68007;51.312;12.372;2023-04-28T06:32:52;15.87;;;7.53;;
3417;SDS011;68007;51.312;12.372;2023-04-28T06:35:22;10.87;;;7.40;;
3417;SDS011;68007;51.312;12.372;2023-04-28T06:37:49;9.63;;;6.90;;
3417;SDS011;68007;51.312;12.372;2023-04-28T06:40:17;14.63;;;6.57;;
3417;SDS011;68007;51.312;12.372;2023-04-28T06:42:44;14.07;;;7.07;;
3417;SDS011;68007;51.312;12.372;2023-04-28T06:45:12;13.73;;;7.30;;
3417;SDS011;68007;51.312;12.372;2023-04-28T06:47:40;11.93;;;6.70;;
3417;SDS011;68007;51.312;12.372;2023-04-28T06:50:07;11.50;;;7.00;;
3417;SDS011;68007;51.312;12.372;2023-04-28T06:52:37;14.10;;;7.60;;
3417;SDS011;68007;51.312;12.372;2023-04-28T06:55:05;15.33;;;7.83;;
3417;SDS011;68007;51.312;12.372;2023-04-28T06:57:34;10.47;;;6.60;;
3417;SDS011;68007;51.312;12.372;2023-04-28T07:00:02;16.20;;;8.80;;
3417;SDS011;68007;51.312;12.372;2023-04-28T07:02:31;17.57;;;8.07;;
3417;SDS011;68007;51.312;12.372;2023-04-28T07:04:58;13.13;;;7.70;;
3417;SDS011;68007;51.312;12.372;2023-04-28T07:07:26;10.47;;;6.57;;
3417;SDS011;68007;51.312;12.372;2023-04-28T07:09:55;8.77;;;6.60;;
3417;SDS011;68007;51.312;12.372;2023-04-28T07:12:23;11.57;;;7.43;;
3417;SDS011;68007;51.312;12.372;2023-04-28T07:14:51;13.90;;;6.40;;
3417;SDS011;68007;51.312;12.372;2023-04-28T07:17:20;16.60;;;7.80;;
3417;SDS011;68007;51.312;12.372;2023-04-28T07:19:48;11.00;;;6.60;;
3417;SDS011;68007;51.312;12.372;2023-04-28T07:22:15;12.13;;;6.60;;
3417;SDS011;68007;51.312;12.372;2023-04-28T07:24:43;18.77;;;7.90;;
3417;SDS011;68007;51.312;12.372;2023-04-28T07:27:12;16.80;;;8.07;;
3417;SDS011;68007;51.312;12.372;2023-04-28T07:29:39;9.63;;;5.70;;
3417;SDS011;68007;51.312;12.372;2023-04-28T07:32:07;11.97;;;7.17;;
3417;SDS011;68007;51.312;12.372;2023-04-28T07:34:35;13.77;;;7.47;;
3417;SDS011;68007;51.312;12.372;2023-04-28T07:37:03;12.90;;;7.17;;
3417;SDS011;68007;51.312;12.372;2023-04-28T07:39:30;11.57;;;6.73;;
3417;SDS011;68007;51.312;12.372;2023-04-28T07:41:59;13.87;;;6.77;;
3417;SDS011;68007;51.312;12.372;2023-04-28T07:44:29;13.93;;;7.63;;
3417;SDS011;68007;51.312;12.372;2023-04-28T07:46:57;15.00;;;7.03;;
3417;SDS011;68007;51.312;12.372;2023-04-28T07:49:25;16.17;;;6.50;;
3417;SDS011;68007;51.312;12.372;2023-04-28T07:51:53;9.80;;;5.70;;
3417;SDS011;68007;51.312;12.372;2023-04-28T07:54:21;16.13;;;8.43;;
3417;SDS011;68007;51.312;12.372;2023-04-28T07:56:49;15.23;;;7.10;;
3417;SDS011;68007;51.312;12.372;2023-04-28T07:59:16;10.70;;;6.67;;
3417;SDS011;68007;51.312;12.372;2023-04-28T08:01:45;14.30;;;7.13;;
3417;SDS011;68007;51.312;12.372;2023-04-28T08:04:13;11.40;;;6.70;;
3417;SDS011;68007;51.312;12.372;2023-04-28T08:06:40;13.80;;;7.10;;
3417;SDS011;68007;51.312;12.372;2023-04-28T08:09:08;10.20;;;6.40;;
3417;SDS011;68007;51.312;12.372;2023-04-28T08:11:36;11.77;;;7.00;;
3417;SDS011;68007;51.312;12.372;2023-04-28T08:14:03;12.73;;;7.17;;
3417;SDS011;68007;51.312;12.372;2023-04-28T08:16:31;11.67;;;5.93;;
3417;SDS011;68007;51.312;12.372;2023-04-28T08:19:00;13.07;;;6.20;;
3417;SDS011;68007;51.312;12.372;2023-04-28T08:21:28;10.30;;;6.60;;
3417;SDS011;68007;51.312;12.372;2023-04-28T08:23:55;14.30;;;7.60;;
3417;SDS011;68007;51.312;12.372;2023-04-28T08:26:23;15.10;;;8.07;;
3417;SDS011;68007;51.312;12.372;2023-04-28T08:28:51;20.30;;;7.50;;
3417;SDS011;68007;51.312;12.372;2023-04-28T08:31:19;10.73;;;6.00;;
3417;SDS011;68007;51.312;12.372;2023-04-28T08:33:46;16.37;;;7.97;;
3417;SDS011;68007;51.312;12.372;2023-04-28T08:36:17;15.30;;;7.77;;
3417;SDS011;68007;51.312;12.372;2023-04-28T08:38:45;18.30;;;6.80;;
3417;SDS011;68007;51.312;12.372;2023-04-28T08:41:14;10.50;;;6.13;;
3417;SDS011;68007;51.312;12.372;2023-04-28T08:43:42;15.30;;;6.47;;
3417;SDS011;68007;51.312;12.372;2023-04-28T08:46:11;12.00;;;5.73;;
3417;SDS011;68007;51.312;12.372;2023-04-28T08:48:42;10.20;;;6.20;;
3417;SDS011;68007;51.312;12.372;2023-04-28T08:51:12;12.10;;;6.27;;
3417;SDS011;68007;51.312;12.372;2023-04-28T08:53:43;11.30;;;6.27;;
3417;SDS011;68007;51.312;12.372;2023-04-28T08:56:19;14.43;;;6.93;;
3417;SDS011;68007;51.312;12.372;2023-04-28T08:58:50;19.30;;;7.33;;
3417;SDS011;68007;51.312;12.372;2023-04-28T09:01:19;16.73;;;8.83;;
3417;SDS011;68007;51.312;12.372;2023-04-28T09:03:46;13.20;;;5.87;;
3417;SDS011;68007;51.312;12.372;2023-04-28T09:06:14;17.63;;;8.00;;
3417;SDS011;68007;51.312;12.372;2023-04-28T09:08:41;15.13;;;6.93;;
3417;SDS011;68007;51.312;12.372;2023-04-28T09:11:10;12.97;;;6.63;;
3417;SDS011;68007;51.312;12.372;2023-04-28T09:13:38;19.10;;;9.00;;
3417;SDS011;68007;51.312;12.372;2023-04-28T09:16:06;10.17;;;6.50;;
3417;SDS011;68007;51.312;12.372;2023-04-28T09:18:34;17.17;;;7.97;;
3417;SDS011;68007;51.312;12.372;2023-04-28T09:21:02;17.10;;;7.30;;
3417;SDS011;68007;51.312;12.372;2023-04-28T09:23:31;12.07;;;6.73;;
3417;SDS011;68007;51.312;12.372;2023-04-28T09:25:59;15.50;;;7.90;;
3417;SDS011;68007;51.312;12.372;2023-04-28T09:28:29;25.03;;;9.83;;
3417;SDS011;68007;51.312;12.372;2023-04-28T09:30:58;16.63;;;7.80;;
3417;SDS011;68007;51.312;12.372;2023-04-28T09:33:25;14.40;;;8.43;;
3417;SDS011;68007;51.312;12.372;2023-04-28T09:35:53;15.80;;;8.77;;
3417;SDS011;68007;51.312;12.372;2023-04-28T09:38:21;16.30;;;8.00;;
3417;SDS011;68007;51.312;12.372;2023-04-28T09:40:50;18.50;;;8.00;;
3417;SDS011;68007;51.312;12.372;2023-04-28T09:43:22;12.37;;;8.17;;
3417;SDS011;68007;51.312;12.372;2023-04-28T09:45:52;15.47;;;7.67;;
3417;SDS011;68007;51.312;12.372;2023-04-28T09:48:27;13.90;;;7.70;;
3417;SDS011;68007;51.312;12.372;2023-04-28T09:50:58;26.00;;;9.70;;
3417;SDS011;68007;51.312;12.372;2023-04-28T09:53:27;15.37;;;9.20;;
3417;SDS011;68007;51.312;12.372;2023-04-28T09:55:56;25.03;;;10.93;;
3417;SDS011;68007;51.312;12.372;2023-04-28T09:58:25;23.27;;;10.00;;
3417;SDS011;68007;51.312;12.372;2023-04-28T10:00:55;19.83;;;10.00;;
3417;SDS011;68007;51.312;12.372;2023-04-28T10:03:24;16.17;;;9.90;;
3417;SDS011;68007;51.312;12.372;2023-04-28T10:05:53;15.37;;;9.00;;
3417;SDS011;68007;51.312;12.372;2023-04-28T10:08:23;20.30;;;8.53;;
3417;SDS011;68007;51.312;12.372;2023-04-28T10:10:52;13.00;;;8.07;;
3417;SDS011;68007;51.312;12.372;2023-04-28T10:13:20;21.73;;;9.03;;
3417;SDS011;68007;51.312;12.372;2023-04-28T10:15:48;18.33;;;9.50;;
3417;SDS011;68007;51.312;12.372;2023-04-28T10:18:21;16.53;;;8.13;;
3417;SDS011;68007;51.312;12.372;2023-04-28T10:20:51;19.17;;;8.60;;
3417;SDS011;68007;51.312;12.372;2023-04-28T10:29:27;14.33;;;8.13;;
3417;SDS011;68007;51.312;12.372;2023-04-28T10:34:52;19.47;;;9.40;;
3417;SDS011;68007;51.312;12.372;2023-04-28T10:40:32;16.63;;;8.50;;
3417;SDS011;68007;51.312;12.372;2023-04-28T10:43:01;20.33;;;8.67;;
3417;SDS011;68007;51.312;12.372;2023-04-28T10:51:25;12.43;;;8.07;;
3417;SDS011;68007;51.312;12.372;2023-04-28T10:54:07;20.73;;;10.20;;
3417;SDS011;68007;51.312;12.372;2023-04-28T10:59:44;16.07;;;8.73;;
3417;SDS011;68007;51.312;12.372;2023-04-28T11:05:17;21.57;;;9.03;;
3417;SDS011;68007;51.312;12.372;2023-04-28T11:13:53;12.03;;;6.80;;
3417;SDS011;68007;51.312;12.372;2023-04-28T11:16:24;15.47;;;6.90;;
3417;SDS011;68007;51.312;12.372;2023-04-28T11:18:55;18.40;;;7.83;;
3417;SDS011;68007;51.312;12.372;2023-04-28T11:21:29;12.10;;;7.37;;
3417;SDS011;68007;51.312;12.372;2023-04-28T11:23:57;9.97;;;6.67;;
3417;SDS011;68007;51.312;12.372;2023-04-28T11:26:28;13.53;;;6.63;;
3417;SDS011;68007;51.312;12.372;2023-04-28T11:29:02;15.30;;;6.83;;
3417;SDS011;68007;51.312;12.372;2023-04-28T11:31:31;12.40;;;6.90;;
3417;SDS011;68007;51.312;12.372;2023-04-28T11:34:00;15.10;;;8.03;;
3417;SDS011;68007;51.312;12.372;2023-04-28T11:36:31;16.07;;;7.67;;
3417;SDS011;68007;51.312;12.372;2023-04-28T11:39:01;12.43;;;8.00;;
3417;SDS011;68007;51.312;12.372;2023-04-28T11:41:33;14.10;;;8.77;;
3417;SDS011;68007;51.312;12.372;2023-04-28T11:44:08;15.80;;;8.67;;
3417;SDS011;68007;51.312;12.372;2023-04-28T11:46:43;17.30;;;8.33;;
3417;SDS011;68007;51.312;12.372;2023-04-28T11:49:15;14.87;;;8.57;;
3417;SDS011;68007;51.312;12.372;2023-04-28T11:51:43;10.57;;;7.53;;
3417;SDS011;68007;51.312;12.372;2023-04-28T11:54:13;11.70;;;7.40;;
3417;SDS011;68007;51.312;12.372;2023-04-28T11:56:47;16.70;;;8.60;;
3417;SDS011;68007;51.312;12.372;2023-04-28T11:59:14;12.77;;;8.23;;
3417;SDS011;68007;51.312;12.372;2023-04-28T12:01:43;11.13;;;8.03;;
3417;SDS011;68007;51.312;12.372;2023-04-28T12:04:12;40.17;;;19.30;;
3417;SDS011;68007;51.312;12.372;2023-04-28T12:06:40;27.17;;;17.17;;
3417;SDS011;68007;51.312;12.372;2023-04-28T12:09:14;18.57;;;10.83;;
3417;SDS011;68007;51.312;12.372;2023-04-28T12:11:56;22.33;;;11.67;;
3417;SDS011;68007;51.312;12.372;2023-04-28T12:14:27;15.77;;;10.00;;
3417;SDS011;68007;51.312;12.372;2023-04-28T12:16:55;22.03;;;13.60;;
3417;SDS011;68007;51.312;12.372;2023-04-28T12:19:23;14.70;;;9.13;;
3417;SDS011;68007;51.312;12.372;2023-04-28T12:22:00;10.70;;;7.77;;
3417;SDS011;68007;51.312;12.372;2023-04-28T12:24:29;12.10;;;8.60;;
3417;SDS011;68007;51.312;12.372;2023-04-28T12:27:15;14.60;;;7.93;;
3417;SDS011;68007;51.312;12.372;2023-04-28T12:29:43;11.33;;;6.90;;
3417;SDS011;68007;51.312;12.372;2023-04-28T12:32:12;12.93;;;7.40;;
3417;SDS011;68007;51.312;12.372;2023-04-28T12:34:40;10.33;;;7.03;;
3417;SDS011;68007;51.312;12.372;2023-04-28T12:37:08;11.73;;;7.87;;
3417;SDS011;68007;51.312;12.372;2023-04-28T12:39:38;11.70;;;8.20;;
3417;SDS011;68007;51.312;12.372;2023-04-28T12:42:06;11.70;;;7.60;;
3417;SDS011;68007;51.312;12.372;2023-04-28T12:44:35;10.43;;;7.70;;
3417;SDS011;68007;51.312;12.372;2023-04-28T12:47:04;10.90;;;7.67;;
3417;SDS011;68007;51.312;12.372;2023-04-28T12:49:33;10.90;;;7.40;;
3417;SDS011;68007;51.312;12.372;2023-04-28T12:52:01;14.20;;;7.87;;
3417;SDS011;68007;51.312;12.372;2023-04-28T12:54:30;16.37;;;7.83;;
3417;SDS011;68007;51.312;12.372;2023-04-28T12:56:58;10.60;;;6.63;;
3417;SDS011;68007;51.312;12.372;2023-04-28T12:59:25;14.37;;;8.03;;
3417;SDS011;68007;51.312;12.372;2023-04-28T13:01:55;12.87;;;7.47;;
3417;SDS011;68007;51.312;12.372;2023-04-28T13:04:22;14.83;;;8.40;;
3417;SDS011;68007;51.312;12.372;2023-04-28T13:06:51;9.70;;;6.83;;
3417;SDS011;68007;51.312;12.372;2023-04-28T13:09:19;18.00;;;8.10;;
3417;SDS011;68007;51.312;12.372;2023-04-28T13:11:46;16.70;;;7.50;;
3417;SDS011;68007;51.312;12.372;2023-04-28T13:14:14;9.90;;;6.90;;
3417;SDS011;68007;51.312;12.372;2023-04-28T13:16:41;10.20;;;7.10;;
3417;SDS011;68007;51.312;12.372;2023-04-28T13:19:10;11.90;;;7.50;;
3417;SDS011;68007;51.312;12.372;2023-04-28T13:21:39;13.60;;;6.43;;
3417;SDS011;68007;51.312;12.372;2023-04-28T13:24:07;8.50;;;7.10;;
3417;SDS011;68007;51.312;12.372;2023-04-28T13:26:35;12.80;;;7.43;;
3417;SDS011;68007;51.312;12.372;2023-04-28T13:29:03;14.23;;;7.10;;
3417;SDS011;68007;51.312;12.372;2023-04-28T13:31:33;9.53;;;6.47;;
3417;SDS011;68007;51.312;12.372;2023-04-28T13:34:00;9.17;;;6.20;;
3417;SDS011;68007;51.312;12.372;2023-04-28T13:36:31;7.90;;;6.27;;
3417;SDS011;68007;51.312;12.372;2023-04-28T13:38:59;9.57;;;6.83;;
3417;SDS011;68007;51.312;12.372;2023-04-28T13:41:26;8.77;;;7.20;;
3417;SDS011;68007;51.312;12.372;2023-04-28T13:43:54;7.43;;;5.60;;
3417;SDS011;68007;51.312;12.372;2023-04-28T13:46:21;9.43;;;6.07;;
3417;SDS011;68007;51.312;12.372;2023-04-28T13:48:49;10.53;;;7.10;;
3417;SDS011;68007;51.312;12.372;2023-04-28T13:51:16;9.77;;;5.40;;
3417;SDS011;68007;51.312;12.372;2023-04-28T13:53:45;7.63;;;5.00;;
3417;SDS011;68007;51.312;12.372;2023-04-28T13:56:13;9.67;;;5.73;;
3417;SDS011;68007;51.312;12.372;2023-04-28T13:58:40;10.00;;;5.30;;
3417;SDS011;68007;51.312;12.372;2023-04-28T14:01:08;9.83;;;6.10;;
3417;SDS011;68007;51.312;12.372;2023-04-28T14:03:36;9.77;;;4.70;;
3417;SDS011;68007;51.312;12.372;2023-04-28T14:06:05;8.80;;;6.60;;
3417;SDS011;68007;51.312;12.372;2023-04-28T14:08:32;10.67;;;5.70;;
3417;SDS011;68007;51.312;12.372;2023-04-28T14:11:01;9.50;;;5.30;;
3417;SDS011;68007;51.312;12.372;2023-04-28T14:13:29;6.83;;;4.47;;
3417;SDS011;68007;51.312;12.372;2023-04-28T14:15:56;11.93;;;5.33;;
3417;SDS011;68007;51.312;12.372;2023-04-28T14:18:24;8.00;;;4.90;;
3417;SDS011;68007;51.312;12.372;2023-04-28T14:20:51;9.70;;;4.97;;
3417;SDS011;68007;51.312;12.372;2023-04-28T14:23:19;7.27;;;5.00;;
3417;SDS011;68007;51.312;12.372;2023-04-28T14:25:47;9.50;;;5.93;;
3417;SDS011;68007;51.312;12.372;2023-04-28T14:28:17;10.50;;;5.53;;
3417;SDS011;68007;51.312;12.372;2023-04-28T14:30:46;7.70;;;4.93;;
3417;SDS011;68007;51.312;12.372;2023-04-28T14:33:14;7.13;;;4.80;;
3417;SDS011;68007;51.312;12.372;2023-04-28T14:35:42;11.70;;;5.30;;
3417;SDS011;68007;51.312;12.372;2023-04-28T14:38:09;5.13;;;4.40;;
3417;SDS011;68007;51.312;12.372;2023-04-28T14:40:39;6.43;;;4.27;;
3417;SDS011;68007;51.312;12.372;2023-04-28T14:43:07;6.60;;;5.20;;
3417;SDS011;68007;51.312;12.372;2023-04-28T14:45:36;7.43;;;4.67;;
3417;SDS011;68007;51.312;12.372;2023-04-28T14:48:04;5.43;;;4.60;;
3417;SDS011;68007;51.312;12.372;2023-04-28T14:50:35;12.07;;;5.57;;
3417;SDS011;68007;51.312;12.372;2023-04-28T14:53:02;10.80;;;6.07;;
3417;SDS011;68007;51.312;12.372;2023-04-28T14:55:31;8.70;;;5.93;;
3417;SDS011;68007;51.312;12.372;2023-04-28T14:57:59;8.77;;;5.10;;
3417;SDS011;68007;51.312;12.372;2023-04-28T15:00:27;8.47;;;5.63;;
3417;SDS011;68007;51.312;12.372;2023-04-28T15:02:57;8.43;;;5.10;;
3417;SDS011;68007;51.312;12.372;2023-04-28T15:05:24;9.60;;;5.63;;
3417;SDS011;68007;51.312;12.372;2023-04-28T15:07:52;7.87;;;5.10;;
3417;SDS011;68007;51.312;12.372;2023-04-28T15:10:19;8.07;;;4.87;;
3417;SDS011;68007;51.312;12.372;2023-04-28T15:12:47;9.17;;;4.90;;